createdAt,value
2018-02-20T00:00:28.774Z,20.33
2018-02-20T00:03:32.826Z,18.77
2018-02-20T00:06:36.872Z,16.27
2018-02-20T00:09:40.168Z,16.13
2018-02-20T00:12:43.458Z,17.87
2018-02-20T00:15:46.741Z,19.00
2018-02-20T00:18:50.031Z,17.43
2018-02-20T00:21:54.905Z,18.30
2018-02-20T00:24:58.185Z,18.07
2018-02-20T00:28:01.533Z,16.57
2018-02-20T00:31:05.591Z,16.33
2018-02-20T00:34:09.006Z,17.20
2018-02-20T00:37:12.848Z,15.80
2018-02-20T00:40:16.133Z,17.97
2018-02-20T00:43:19.538Z,17.67
2018-02-20T00:46:22.873Z,16.60
2018-02-20T00:49:27.272Z,16.47
2018-02-20T00:52:30.553Z,18.00
2018-02-20T00:55:33.833Z,17.53
2018-02-20T00:58:37.128Z,17.62
2018-02-20T01:01:40.433Z,17.50
2018-02-20T01:04:43.718Z,17.43
2018-02-20T01:07:46.994Z,18.30
2018-02-20T01:10:51.068Z,17.35
2018-02-20T01:13:56.904Z,16.97
2018-02-20T01:17:00.176Z,14.82
2018-02-20T01:20:03.700Z,16.27
2018-02-20T01:23:06.991Z,15.90
2018-02-20T01:26:11.272Z,17.45
2018-02-20T01:29:15.231Z,18.58
2018-02-20T01:32:18.504Z,19.20
2018-02-20T01:35:22.593Z,16.43
2018-02-20T01:38:25.894Z,17.17
2018-02-20T01:41:29.302Z,16.67
2018-02-20T01:44:32.730Z,18.20
2018-02-20T01:47:36.921Z,17.07
2018-02-20T01:54:09.559Z,16.53
2018-02-20T01:57:13.648Z,15.60
2018-02-20T02:00:17.732Z,16.60
2018-02-20T02:03:21.824Z,16.47
2018-02-20T02:06:25.157Z,17.10
2018-02-20T02:09:28.892Z,17.57
2018-02-20T02:12:33.062Z,15.37
2018-02-20T02:15:36.349Z,17.90
2018-02-20T02:18:39.642Z,16.87
2018-02-20T02:21:43.965Z,16.52
2018-02-20T02:24:47.303Z,18.00
2018-02-20T02:27:50.587Z,16.37
2018-02-20T02:30:53.880Z,15.73
2018-02-20T02:33:57.158Z,16.40
2018-02-20T02:37:00.453Z,16.40
2018-02-20T02:40:04.042Z,16.65
2018-02-20T02:43:07.328Z,14.77
2018-02-20T02:46:10.621Z,15.37
2018-02-20T02:49:14.774Z,14.70
2018-02-20T02:52:18.054Z,14.07
2018-02-20T02:55:21.346Z,14.77
2018-02-20T02:58:24.873Z,17.87
2018-02-20T03:01:28.162Z,16.43
2018-02-20T03:04:32.388Z,15.70
2018-02-20T03:07:35.675Z,16.67
2018-02-20T03:10:38.972Z,17.40
2018-02-20T03:13:42.241Z,17.23
2018-02-20T03:16:46.291Z,17.57
2018-02-20T03:19:49.574Z,17.50
2018-02-20T03:22:52.879Z,16.15
2018-02-20T03:25:57.009Z,15.63
2018-02-20T03:29:00.290Z,14.37
2018-02-20T03:32:03.582Z,15.63
2018-02-20T03:35:06.906Z,17.15
2018-02-20T03:38:10.294Z,17.47
2018-02-20T03:41:13.901Z,17.12
2018-02-20T03:44:17.176Z,18.03
2018-02-20T03:47:21.722Z,17.47
2018-02-20T03:50:25.028Z,16.17
2018-02-20T03:53:28.318Z,16.63
2018-02-20T03:56:31.617Z,17.00
2018-02-20T03:59:35.665Z,15.82
2018-02-20T04:02:38.954Z,18.42
2018-02-20T04:05:42.232Z,15.87
2018-02-20T04:08:45.650Z,16.97
2018-02-20T04:11:48.927Z,14.46
2018-02-20T04:14:52.197Z,15.53
2018-02-20T04:17:55.515Z,14.57
2018-02-20T04:20:58.889Z,14.47
2018-02-20T04:24:02.169Z,16.63
2018-02-20T04:27:06.225Z,14.73
2018-02-20T04:30:09.585Z,13.97
2018-02-20T04:33:14.000Z,13.23
2018-02-20T04:36:17.282Z,15.27
2018-02-20T04:39:20.559Z,14.83
2018-02-20T04:42:23.917Z,14.23
2018-02-20T04:45:27.980Z,14.03
2018-02-20T04:48:31.280Z,14.20
2018-02-20T04:51:34.578Z,17.00
2018-02-20T04:54:37.888Z,12.83
2018-02-20T04:57:41.181Z,14.83
2018-02-20T05:00:44.494Z,13.50
2018-02-20T05:03:47.798Z,12.67
2018-02-20T05:06:51.141Z,14.57
2018-02-20T05:09:54.428Z,13.57
2018-02-20T05:13:06.169Z,14.87
2018-02-20T05:16:09.535Z,14.53
2018-02-20T05:19:12.824Z,14.93
2018-02-20T05:22:16.100Z,14.60
2018-02-20T05:25:20.230Z,13.95
2018-02-20T05:28:23.509Z,12.63
2018-02-20T05:31:27.549Z,12.03
2018-02-20T05:34:30.813Z,14.27
2018-02-20T05:37:34.129Z,15.20
2018-02-20T05:40:38.182Z,15.13
2018-02-20T05:43:41.454Z,15.43
2018-02-20T05:46:46.010Z,13.92
2018-02-20T05:49:49.281Z,13.23
2018-02-20T05:52:52.604Z,13.57
2018-02-20T05:55:56.869Z,16.97
2018-02-20T05:59:00.914Z,14.83
2018-02-20T06:02:04.196Z,13.93
2018-02-20T06:05:08.242Z,16.42
2018-02-20T06:08:11.541Z,17.50
2018-02-20T06:11:14.921Z,16.20
2018-02-20T06:14:18.217Z,13.60
2018-02-20T06:17:21.524Z,14.23
2018-02-20T06:20:24.796Z,16.00
2018-02-20T06:23:28.865Z,14.75
2018-02-20T06:26:32.149Z,15.93
2018-02-20T06:29:35.464Z,15.47
2018-02-20T06:32:38.726Z,17.80
2018-02-20T06:35:42.016Z,15.47
2018-02-20T06:38:45.323Z,15.03
2018-02-20T06:41:48.598Z,17.67
2018-02-20T06:44:52.693Z,17.97
2018-02-20T06:47:56.025Z,14.87
2018-02-20T06:50:59.323Z,17.87
2018-02-20T06:54:02.622Z,18.40
2018-02-20T06:57:06.661Z,18.17
2018-02-20T07:00:09.941Z,17.40
2018-02-20T07:03:13.211Z,19.20
2018-02-20T07:06:17.249Z,18.30
2018-02-20T07:09:20.531Z,18.43
2018-02-20T07:12:24.578Z,14.93
2018-02-20T07:15:28.629Z,18.30
2018-02-20T07:18:31.903Z,15.87
2018-02-20T07:21:35.179Z,17.70
2018-02-20T07:24:38.446Z,15.57
2018-02-20T07:27:42.585Z,16.50
2018-02-20T07:30:45.874Z,16.87
2018-02-20T07:33:49.988Z,15.05
2018-02-20T07:36:53.306Z,16.57
2018-02-20T07:39:56.684Z,15.50
2018-02-20T07:43:00.721Z,17.10
2018-02-20T07:46:03.991Z,17.40
2018-02-20T07:49:08.043Z,17.30
2018-02-20T07:52:11.354Z,15.73
2018-02-20T07:55:14.613Z,16.30
2018-02-20T07:58:17.928Z,17.93
2018-02-20T08:01:21.359Z,18.03
2018-02-20T08:04:24.714Z,18.00
2018-02-20T08:07:30.599Z,17.97
2018-02-20T08:10:34.793Z,16.80
2018-02-20T08:13:38.099Z,16.67
2018-02-20T08:16:41.387Z,17.20
2018-02-20T08:19:44.658Z,16.63
2018-02-20T08:22:48.707Z,18.30
2018-02-20T08:25:52.098Z,17.55
2018-02-20T08:28:55.391Z,17.83
2018-02-20T08:31:58.654Z,16.27
2018-02-20T08:35:01.925Z,17.67
2018-02-20T08:38:05.213Z,17.43
2018-02-20T08:41:08.502Z,15.27
2018-02-20T08:44:11.899Z,17.40
2018-02-20T08:47:15.200Z,14.50
2018-02-20T08:50:18.502Z,17.10
2018-02-20T08:53:22.941Z,16.68
2018-02-20T08:56:26.224Z,15.03
2018-02-20T08:59:29.525Z,15.70
2018-02-20T09:02:32.830Z,15.20
2018-02-20T09:05:36.150Z,15.77
2018-02-20T09:08:39.917Z,15.70
2018-02-20T09:11:43.213Z,14.63
2018-02-20T09:14:46.563Z,13.43
2018-02-20T09:17:49.843Z,15.33
2018-02-20T09:20:54.361Z,13.48
2018-02-20T09:23:57.621Z,13.32
2018-02-20T09:27:00.906Z,14.07
2018-02-20T09:30:05.602Z,13.77
2018-02-20T09:33:08.865Z,14.80
2018-02-20T09:36:12.140Z,14.73
2018-02-20T09:39:15.417Z,14.00
2018-02-20T09:42:19.469Z,12.93
2018-02-20T09:45:22.736Z,11.13
2018-02-20T09:48:26.773Z,10.57
2018-02-20T09:51:30.065Z,10.13
2018-02-20T09:54:33.338Z,8.30
2018-02-20T09:57:37.375Z,9.05
2018-02-20T10:00:41.418Z,9.23
2018-02-20T10:03:44.777Z,9.47
2018-02-20T10:06:48.052Z,10.57
2018-02-20T10:09:52.086Z,8.93
2018-02-20T10:12:55.361Z,9.77
2018-02-20T10:15:58.623Z,8.87
2018-02-20T10:19:02.667Z,11.05
2018-02-20T10:22:05.977Z,12.90
2018-02-20T10:25:09.326Z,11.20
2018-02-20T10:28:12.676Z,12.30
2018-02-20T10:31:15.986Z,11.00
2018-02-20T10:34:19.246Z,12.88
2018-02-20T10:37:22.526Z,12.47
2018-02-20T10:40:26.593Z,13.47
2018-02-20T10:43:29.886Z,13.43
2018-02-20T10:46:33.156Z,12.03
2018-02-20T10:49:36.426Z,14.63
2018-02-20T10:52:39.694Z,12.55
2018-02-20T10:55:43.019Z,13.33
2018-02-20T10:58:46.276Z,13.77
2018-02-20T11:01:49.544Z,13.93
2018-02-20T11:04:52.824Z,14.80
2018-02-20T11:07:56.337Z,13.88
2018-02-20T11:10:59.607Z,15.20
2018-02-20T11:14:02.926Z,13.10
2018-02-20T11:17:06.988Z,13.13
2018-02-20T11:20:10.250Z,13.35
2018-02-20T11:23:13.616Z,13.48
2018-02-20T11:26:17.749Z,12.23
2018-02-20T11:29:21.781Z,11.30
2018-02-20T11:32:25.047Z,12.27
2018-02-20T11:35:28.313Z,13.13
2018-02-20T11:38:31.641Z,12.88
2018-02-20T11:41:36.419Z,13.97
2018-02-20T11:44:39.773Z,13.80
2018-02-20T11:47:43.058Z,13.47
2018-02-20T11:50:46.464Z,14.30
2018-02-20T11:53:49.809Z,14.00
2018-02-20T11:56:53.101Z,14.53
2018-02-20T11:59:57.605Z,14.07
2018-02-20T12:03:01.642Z,15.70
2018-02-20T12:06:04.921Z,12.97
2018-02-20T12:09:08.958Z,11.30
2018-02-20T12:12:12.242Z,10.20
2018-02-20T12:15:16.329Z,12.40
2018-02-20T12:18:19.618Z,14.00
2018-02-20T12:21:22.922Z,12.20
2018-02-20T12:24:28.217Z,11.83
2018-02-20T12:27:31.502Z,11.17
2018-02-20T12:30:34.832Z,12.43
2018-02-20T12:33:38.143Z,13.10
2018-02-20T12:36:41.420Z,11.10
2018-02-20T12:39:44.823Z,11.38
2018-02-20T12:42:48.173Z,9.30
2018-02-20T12:45:51.401Z,10.50
2018-02-20T12:48:54.693Z,11.03
2018-02-20T12:51:59.968Z,12.73
2018-02-20T12:55:03.253Z,10.38
2018-02-20T12:58:06.537Z,10.73
2018-02-20T13:01:09.827Z,10.43
2018-02-20T13:04:13.163Z,10.68
2018-02-20T13:07:16.450Z,11.27
2018-02-20T13:10:19.725Z,10.10
2018-02-20T13:13:23.018Z,10.77
2018-02-20T13:16:26.293Z,11.30
2018-02-20T13:19:30.957Z,10.70
2018-02-20T13:22:34.373Z,10.00
2018-02-20T13:25:37.715Z,9.33
2018-02-20T13:28:41.854Z,9.40
2018-02-20T13:31:45.149Z,10.57
2018-02-20T13:34:49.406Z,10.60
2018-02-20T13:37:52.698Z,11.30
2018-02-20T13:40:56.900Z,10.43
2018-02-20T13:44:00.790Z,10.77
2018-02-20T13:47:04.844Z,10.13
2018-02-20T13:50:08.137Z,9.90
2018-02-20T13:53:11.521Z,10.83
2018-02-20T13:56:15.037Z,11.87
2018-02-20T13:59:19.071Z,11.00
2018-02-20T14:02:22.949Z,10.30
2018-02-20T14:05:26.230Z,9.88
2018-02-20T14:08:31.729Z,10.73
2018-02-20T14:11:35.005Z,10.67
2018-02-20T14:14:38.297Z,11.17
2018-02-20T14:17:41.589Z,11.40
2018-02-20T14:20:44.949Z,11.97
2018-02-20T14:23:48.304Z,12.52
2018-02-20T14:26:51.583Z,14.63
2018-02-20T14:29:54.853Z,12.53
2018-02-20T14:32:58.129Z,12.20
2018-02-20T14:36:03.039Z,12.68
2018-02-20T14:39:06.351Z,10.48
2018-02-20T14:42:09.837Z,12.10
2018-02-20T14:45:13.127Z,12.80
2018-02-20T14:48:16.405Z,12.13
2018-02-20T14:51:20.440Z,13.15
2018-02-20T14:54:23.828Z,12.30
2018-02-20T14:57:27.203Z,13.33
2018-02-20T15:00:30.571Z,14.60
2018-02-20T15:03:35.364Z,12.17
2018-02-20T15:06:38.694Z,11.87
2018-02-20T15:09:41.965Z,14.53
2018-02-20T15:12:45.525Z,14.70
2018-02-20T15:15:48.797Z,14.03
2018-02-20T15:18:52.069Z,14.77
2018-02-20T15:21:55.368Z,13.83
2018-02-20T15:24:58.648Z,11.93
2018-02-20T15:28:02.290Z,13.15
2018-02-20T15:31:05.557Z,13.30
2018-02-20T15:34:08.855Z,12.52
2018-02-20T15:37:12.182Z,12.37
2018-02-20T15:40:15.465Z,15.27
2018-02-20T15:43:18.925Z,13.33
2018-02-20T15:46:22.951Z,13.73
2018-02-20T15:49:27.268Z,14.73
2018-02-20T15:52:31.321Z,14.90
2018-02-20T15:55:34.915Z,14.23
2018-02-20T15:58:38.189Z,14.07
2018-02-20T16:01:41.496Z,15.73
2018-02-20T16:04:44.794Z,15.83
2018-02-20T16:07:48.096Z,15.27
2018-02-20T16:10:51.380Z,15.30
2018-02-20T16:17:29.566Z,14.70
2018-02-20T16:20:32.852Z,14.83
2018-02-20T16:23:36.125Z,14.00
2018-02-20T16:26:39.398Z,15.23
2018-02-20T16:29:43.442Z,15.07
2018-02-20T16:32:46.739Z,14.73
2018-02-20T16:35:50.030Z,16.20
2018-02-20T16:38:53.321Z,18.30
2018-02-20T16:41:57.355Z,17.40
2018-02-20T16:45:00.646Z,16.83
2018-02-20T16:48:03.947Z,18.20
2018-02-20T16:51:07.235Z,18.00
2018-02-20T16:54:10.510Z,16.13
2018-02-20T16:57:14.828Z,17.17
2018-02-20T17:00:18.121Z,19.45
2018-02-20T17:03:22.234Z,17.67
2018-02-20T17:06:26.336Z,17.10
2018-02-20T17:09:29.612Z,17.37
2018-02-20T17:12:32.887Z,17.17
2018-02-20T17:15:37.641Z,17.63
2018-02-20T17:18:40.920Z,16.40
2018-02-20T17:21:44.234Z,16.23
2018-02-20T17:24:47.534Z,17.52
2018-02-20T17:27:50.812Z,13.83
2018-02-20T17:30:54.214Z,16.53
2018-02-20T17:34:09.371Z,15.67
2018-02-20T17:37:13.386Z,20.17
2018-02-20T17:40:23.119Z,19.63
2018-02-20T17:43:27.258Z,17.00
2018-02-20T17:46:31.044Z,16.00
2018-02-20T17:49:34.451Z,16.30
2018-02-20T17:52:38.667Z,15.57
2018-02-20T17:55:42.747Z,14.17
2018-02-20T17:58:46.044Z,16.13
2018-02-20T18:01:49.347Z,16.83
2018-02-20T18:04:52.631Z,15.70
2018-02-20T18:07:55.925Z,17.98
2018-02-20T18:11:00.062Z,16.60
2018-02-20T18:14:03.372Z,20.03
2018-02-20T18:17:06.725Z,19.93
2018-02-20T18:20:10.014Z,19.90
2018-02-20T18:23:13.356Z,19.10
2018-02-20T18:26:16.705Z,16.70
2018-02-20T18:29:20.735Z,18.27
2018-02-20T18:32:24.046Z,18.53
2018-02-20T18:35:27.549Z,16.93
2018-02-20T18:38:30.907Z,19.60
2018-02-20T18:41:35.061Z,17.00
2018-02-20T18:44:38.389Z,17.57
2018-02-20T18:47:41.687Z,16.47
2018-02-20T18:50:44.963Z,17.00
2018-02-20T18:53:48.403Z,18.10
2018-02-20T18:56:51.702Z,16.67
2018-02-20T18:59:55.742Z,18.80
2018-02-20T19:02:59.036Z,18.33
2018-02-20T19:06:02.302Z,19.97
2018-02-20T19:09:05.633Z,19.60
2018-02-20T19:12:08.922Z,17.80
2018-02-20T19:15:12.990Z,21.27
2018-02-20T19:18:16.315Z,18.92
2018-02-20T19:21:19.641Z,19.70
2018-02-20T19:24:23.639Z,20.42
2018-02-20T19:27:27.817Z,17.43
2018-02-20T19:30:31.161Z,19.47
2018-02-20T19:33:34.481Z,21.90
2018-02-20T19:36:37.749Z,20.73
2018-02-20T19:39:41.950Z,21.55
2018-02-20T19:42:45.538Z,21.73
2018-02-20T19:45:48.828Z,21.53
2018-02-20T19:48:52.157Z,20.35
2018-02-20T19:51:55.729Z,22.03
2018-02-20T19:54:59.030Z,18.67
2018-02-20T19:58:02.362Z,19.53
2018-02-20T20:01:05.675Z,20.97
2018-02-20T20:04:10.104Z,19.37
2018-02-20T20:07:13.715Z,21.07
2018-02-20T20:10:17.246Z,20.85
2018-02-20T20:13:21.021Z,20.17
2018-02-20T20:16:24.537Z,22.57
2018-02-20T20:19:28.326Z,23.27
2018-02-20T20:22:32.547Z,21.40
2018-02-20T20:25:35.909Z,20.63
2018-02-20T20:28:39.259Z,20.23
2018-02-20T20:31:43.623Z,19.84
2018-02-20T20:34:47.256Z,19.83
2018-02-20T20:37:50.974Z,21.10
2018-02-20T20:40:54.545Z,21.47
2018-02-20T20:43:58.093Z,21.00
2018-02-20T20:47:02.247Z,25.23
2018-02-20T20:50:06.698Z,22.47
2018-02-20T20:53:10.231Z,20.80
2018-02-20T20:56:14.835Z,19.75
2018-02-20T20:59:19.448Z,22.57
2018-02-20T21:02:23.761Z,19.67
2018-02-20T21:05:27.063Z,20.45
2018-02-20T21:08:30.389Z,20.20
2018-02-20T21:11:34.489Z,19.50
2018-02-20T21:14:37.786Z,20.33
2018-02-20T21:17:41.066Z,21.42
2018-02-20T21:20:45.348Z,21.12
2018-02-20T21:23:49.398Z,21.83
2018-02-20T21:26:52.729Z,23.13
2018-02-20T21:29:55.992Z,22.47
2018-02-20T21:32:59.275Z,19.90
2018-02-20T21:36:02.566Z,20.45
2018-02-20T21:39:05.870Z,21.87
2018-02-20T21:42:09.197Z,22.50
2018-02-20T21:45:12.490Z,22.90
2018-02-20T21:48:16.534Z,22.25
2018-02-20T21:51:19.872Z,22.10
2018-02-20T21:54:23.909Z,22.50
2018-02-20T21:57:27.191Z,21.53
2018-02-20T22:00:30.482Z,22.07
2018-02-20T22:03:33.782Z,22.25
2018-02-20T22:06:37.065Z,22.58
2018-02-20T22:09:41.104Z,21.00
2018-02-20T22:12:44.398Z,19.47
2018-02-20T22:15:47.678Z,20.40
2018-02-20T22:18:51.726Z,21.90
2018-02-20T22:21:55.006Z,21.17
2018-02-20T22:24:58.314Z,20.97
2018-02-20T22:28:01.992Z,20.00
2018-02-20T22:31:06.046Z,19.67
2018-02-20T22:34:09.329Z,21.87
2018-02-20T22:37:12.609Z,18.80
2018-02-20T22:40:15.901Z,18.90
2018-02-20T22:43:19.941Z,20.40
2018-02-20T22:46:23.310Z,22.13
2018-02-20T22:49:27.784Z,20.43
2018-02-20T22:52:31.034Z,18.90
2018-02-20T22:55:35.132Z,20.77
2018-02-20T22:58:38.428Z,22.57
2018-02-20T23:01:41.714Z,20.43
2018-02-20T23:04:45.060Z,21.87
2018-02-20T23:07:50.380Z,24.03
2018-02-20T23:10:53.681Z,22.17
2018-02-20T23:13:58.428Z,23.83
2018-02-20T23:17:02.486Z,23.43
2018-02-20T23:20:06.608Z,20.60
2018-02-20T23:23:09.938Z,20.20
2018-02-20T23:26:13.278Z,20.23
2018-02-20T23:29:17.539Z,22.60
2018-02-20T23:32:21.778Z,23.23
2018-02-20T23:35:25.071Z,22.80
2018-02-20T23:38:28.366Z,19.63
2018-02-20T23:41:31.655Z,21.63
2018-02-20T23:44:35.643Z,20.40
2018-02-20T23:47:38.922Z,21.30
2018-02-20T23:50:42.194Z,21.23
2018-02-20T23:53:46.250Z,22.00
2018-02-20T23:56:49.734Z,19.93
2018-02-20T23:59:53.009Z,19.30
